KHIO

Portland-Hillsboro Airport

Portland, Oregon, USA
METAR KHIO 201053Z AUTO 00000KT 1 1/2SM R13R/5500VP6000FT BR BKN004 OVC080 06/05 A2999 RMK AO2 SLP155 T00560050
Observed Flight Rules
Jan-20 @ 10:53 UTC (13 minutes ago) Instrument Flight Rules
Visibility Clouds Conditions
1 1/2 miles
  • Broken at 400' AGL
  • Overcast at 8,000' AGL
  • Mist
Temperatures Readings
Current 6°C / 43°F
Dewpoint 5°C / 41°F
Humidity 93%
Altimeter 29.99" Hg
Pressure 1015.5 hPa
Elevation 68
METAR KHIO 201053Z AUTO 00000KT 1 1/2SM R13R/5500VP6000FT BR BKN004 OVC080 06/05 A2999 RMK AO2 SLP155 T00560050
Observed Flight Rules
Jan-20 @ 10:53 UTC
(13 minutes ago)
LIFR
Clouds
  • Broken at 400' AGL
  • Overcast at 8,000' AGL
Conditions
  • Mist
Temperature Dewpoint
6°C / 43°F 5°C / 41°F
Humidity Altimeter Pressure
93% 29.99" Hg 1015.5 hPa